Time;durP1;ratioP1;P1;durP2;ratioP2;P2;SDS_P1;SDS_P2;PMS_P1;PMS_P2;Temp;Humidity;BMP_temperature;BMP_pressure;BME280_temperature;BME280_humidity;BME280_pressure;Samples;Min_cycle;Max_cycle;Signal;HPM_P1;HPM_P2
2023/02/01 00:01:20;;;;;;;0.88;0.88;;;;;;;;;;5037459;28;20088;-91
2023/02/01 00:03:48;;;;;;;1.65;1.55;;;;;;;;;;5037273;28;20060;-92
2023/02/01 00:06:15;;;;;;;2.55;2.45;;;;;;;;;;5037467;28;20057;-91
2023/02/01 00:08:41;;;;;;;1.05;0.95;;;;;;;;;;5037648;28;20458;-92
2023/02/01 00:11:09;;;;;;;0.50;0.50;;;;;;;;;;5037361;28;20100;-91
2023/02/01 00:13:37;;;;;;;0.68;0.68;;;;;;;;;;5039299;28;20045;-91
2023/02/01 00:16:04;;;;;;;1.27;1.25;;;;;;;;;;5038364;28;20458;-91
2023/02/01 00:18:31;;;;;;;0.90;0.90;;;;;;;;;;5037608;28;20049;-91
2023/02/01 00:20:59;;;;;;;1.48;1.38;;;;;;;;;;5037254;28;20053;-91
2023/02/01 00:23:26;;;;;;;2.10;1.38;;;;;;;;;;5038053;28;20107;-91
2023/02/01 00:25:52;;;;;;;0.70;0.70;;;;;;;;;;5037315;28;20075;-91
2023/02/01 00:28:19;;;;;;;1.13;1.13;;;;;;;;;;5038235;28;20104;-91
2023/02/01 00:30:45;;;;;;;0.88;0.88;;;;;;;;;;5057188;28;20049;-91
2023/02/01 00:33:12;;;;;;;1.00;1.00;;;;;;;;;;5056424;28;20049;-91
2023/02/01 00:35:38;;;;;;;1.67;1.58;;;;;;;;;;5056648;28;20565;-90
2023/02/01 00:38:06;;;;;;;1.85;1.75;;;;;;;;;;5056649;28;20053;-90
2023/02/01 00:40:33;;;;;;;0.73;0.73;;;;;;;;;;5056059;28;20049;-91
2023/02/01 00:42:59;;;;;;;0.93;0.93;;;;;;;;;;5056989;28;20095;-91
2023/02/01 00:45:26;;;;;;;0.80;0.80;;;;;;;;;;5056880;28;20053;-91
2023/02/01 00:47:52;;;;;;;1.10;1.10;;;;;;;;;;5056901;28;20568;-91
2023/02/01 00:50:19;;;;;;;1.13;1.13;;;;;;;;;;5056698;28;20048;-91
2023/02/01 00:52:45;;;;;;;1.00;1.00;;;;;;;;;;5056400;28;20041;-91
2023/02/01 00:55:13;;;;;;;0.60;0.60;;;;;;;;;;5056509;28;20052;-92
2023/02/01 00:57:40;;;;;;;0.88;0.88;;;;;;;;;;5056352;28;20453;-91
2023/02/01 01:00:07;;;;;;;0.70;0.70;;;;;;;;;;5056433;28;20099;-92
2023/02/01 01:02:33;;;;;;;2.15;1.92;;;;;;;;;;5056558;28;20465;-92
2023/02/01 01:05:00;;;;;;;1.75;1.65;;;;;;;;;;5056610;28;20053;-92
2023/02/01 01:07:28;;;;;;;0.98;0.98;;;;;;;;;;5056517;28;20100;-91
2023/02/01 01:09:54;;;;;;;0.77;0.77;;;;;;;;;;5056279;28;20049;-91
2023/02/01 01:12:22;;;;;;;0.40;0.40;;;;;;;;;;5056213;28;20091;-91
2023/02/01 01:14:49;;;;;;;0.47;0.47;;;;;;;;;;5056053;28;20486;-91
2023/02/01 01:17:15;;;;;;;0.65;0.65;;;;;;;;;;5055794;28;20094;-91
2023/02/01 01:19:42;;;;;;;1.67;1.58;;;;;;;;;;5054651;28;20091;-91
2023/02/01 01:22:08;;;;;;;0.75;0.75;;;;;;;;;;5035436;28;20053;-91
2023/02/01 01:24:35;;;;;;;1.40;1.33;;;;;;;;;;5046134;28;20056;-91
2023/02/01 01:27:01;;;;;;;1.17;1.17;;;;;;;;;;5055653;28;20102;-91
2023/02/01 01:29:29;;;;;;;0.82;0.82;;;;;;;;;;5047003;28;20049;-91
2023/02/01 01:31:56;;;;;;;2.13;2.03;;;;;;;;;;5035808;28;20111;-91
2023/02/01 01:34:22;;;;;;;0.70;0.70;;;;;;;;;;5036040;28;20049;-91
2023/02/01 01:36:49;;;;;;;1.02;1.02;;;;;;;;;;5036125;28;20103;-91
2023/02/01 01:39:15;;;;;;;1.42;1.42;;;;;;;;;;5036034;28;20119;-91
2023/02/01 01:41:42;;;;;;;1.13;1.13;;;;;;;;;;5036253;28;20053;-91
2023/02/01 01:44:23;;;;;;;1.50;1.48;;;;;;;;;;5036542;28;20461;-92
2023/02/01 01:46:51;;;;;;;1.05;1.02;;;;;;;;;;5034612;28;20396;-91
2023/02/01 01:49:18;;;;;;;0.82;0.82;;;;;;;;;;5035354;28;20498;-91
2023/02/01 01:51:47;;;;;;;0.98;0.98;;;;;;;;;;5034479;28;20045;-91
2023/02/01 01:54:17;;;;;;;0.50;0.50;;;;;;;;;;5035348;28;20111;-91
2023/02/01 01:56:44;;;;;;;1.10;1.10;;;;;;;;;;5035066;28;20479;-91
2023/02/01 01:59:11;;;;;;;1.73;1.63;;;;;;;;;;5035375;28;20050;-91
2023/02/01 02:01:37;;;;;;;0.60;0.60;;;;;;;;;;5035422;28;20053;-91
2023/02/01 02:04:05;;;;;;;0.65;0.65;;;;;;;;;;5035513;28;20388;-91
2023/02/01 02:06:38;;;;;;;1.00;1.00;;;;;;;;;;5035407;28;20045;-91
2023/02/01 02:09:05;;;;;;;3.65;1.35;;;;;;;;;;5035287;28;20080;-91
2023/02/01 02:11:31;;;;;;;0.80;0.80;;;;;;;;;;5035206;28;20057;-91
2023/02/01 02:13:58;;;;;;;0.60;0.60;;;;;;;;;;5035022;28;20107;-91
2023/02/01 02:16:36;;;;;;;0.93;0.90;;;;;;;;;;5034549;28;20107;-91
2023/02/01 02:19:20;;;;;;;1.05;1.05;;;;;;;;;;5035758;28;20049;-92
2023/02/01 02:21:53;;;;;;;1.10;1.00;;;;;;;;;;5034903;28;20045;-92
2023/02/01 02:24:30;;;;;;;0.88;0.88;;;;;;;;;;5035044;28;20049;-91
2023/02/01 02:27:24;;;;;;;1.10;1.10;;;;;;;;;;5035227;28;20601;-92
2023/02/01 02:30:14;;;;;;;0.32;0.32;;;;;;;;;;5034944;28;20049;-91
2023/02/01 02:33:08;;;;;;;0.75;0.75;;;;;;;;;;4954697;28;20568;-92
2023/02/01 02:35:39;;;;;;;1.38;1.20;;;;;;;;;;4897824;29;20045;-91
2023/02/01 02:38:09;;;;;;;0.30;0.30;;;;;;;;;;4897527;29;20049;-92
2023/02/01 02:40:41;;;;;;;0.60;0.60;;;;;;;;;;4897549;29;20495;-92
2023/02/01 02:48:43;;;;;;;0.85;0.85;;;;;;;;;;4897400;29;20063;-92
2023/02/01 03:05:10;;;;;;;1.00;1.00;;;;;;;;;;4805167;29;20057;-90
2023/02/01 03:07:49;;;;;;;2.15;2.05;;;;;;;;;;4805446;29;20504;-92
2023/02/01 03:10:18;;;;;;;1.38;1.30;;;;;;;;;;4875541;29;20555;-92
2023/02/01 03:12:57;;;;;;;1.15;1.13;;;;;;;;;;4934658;29;20056;-92
2023/02/01 03:15:26;;;;;;;0.75;0.75;;;;;;;;;;4934742;29;20111;-92
2023/02/01 03:17:52;;;;;;;0.22;0.22;;;;;;;;;;4935041;29;20139;-92
2023/02/01 03:20:20;;;;;;;1.05;1.05;;;;;;;;;;4935000;29;20044;-92
2023/02/01 03:22:49;;;;;;;0.38;0.38;;;;;;;;;;4935150;29;20065;-90
2023/02/01 03:25:19;;;;;;;1.02;1.02;;;;;;;;;;4935173;29;20048;-92
2023/02/01 03:27:49;;;;;;;0.60;0.60;;;;;;;;;;4962871;28;20046;-91
2023/02/01 03:30:21;;;;;;;0.75;0.75;;;;;;;;;;5033949;28;20061;-91
2023/02/01 03:33:00;;;;;;;1.42;1.33;;;;;;;;;;5034570;28;20269;-92
2023/02/01 03:35:29;;;;;;;0.50;0.50;;;;;;;;;;5024354;28;20132;-92
2023/02/01 03:38:04;;;;;;;0.57;0.57;;;;;;;;;;5014297;28;20562;-92
2023/02/01 03:40:33;;;;;;;0.93;0.93;;;;;;;;;;5014542;28;20049;-92
2023/02/01 03:43:00;;;;;;;0.63;0.63;;;;;;;;;;5014822;28;20046;-92
2023/02/01 03:45:28;;;;;;;0.63;0.63;;;;;;;;;;5005145;28;20054;-92
2023/02/01 03:47:57;;;;;;;0.63;0.63;;;;;;;;;;4995269;28;20050;-92
2023/02/01 03:50:25;;;;;;;1.27;1.25;;;;;;;;;;4995073;28;20050;-92
2023/02/01 03:52:54;;;;;;;1.42;1.38;;;;;;;;;;4994986;28;20408;-92
2023/02/01 03:55:23;;;;;;;0.50;0.50;;;;;;;;;;5002307;28;20058;-92
2023/02/01 03:57:52;;;;;;;1.92;1.83;;;;;;;;;;5014623;28;20108;-92
2023/02/01 04:00:21;;;;;;;1.25;1.25;;;;;;;;;;5014301;28;20104;-92
2023/02/01 04:02:48;;;;;;;2.05;1.95;;;;;;;;;;5014432;28;20137;-92
2023/02/01 04:05:14;;;;;;;1.30;0.75;;;;;;;;;;5014070;28;20050;-92
2023/02/01 04:07:41;;;;;;;2.65;1.52;;;;;;;;;;5014012;28;20455;-92
2023/02/01 04:10:08;;;;;;;1.17;1.17;;;;;;;;;;5014506;28;20454;-91
2023/02/01 04:12:36;;;;;;;0.45;0.45;;;;;;;;;;5014096;28;20053;-92
2023/02/01 04:15:03;;;;;;;1.23;1.20;;;;;;;;;;5017406;28;20096;-92
2023/02/01 04:17:29;;;;;;;0.68;0.68;;;;;;;;;;5018061;28;20104;-92
2023/02/01 04:19:56;;;;;;;1.92;1.83;;;;;;;;;;5014853;28;20105;-92
2023/02/01 04:22:22;;;;;;;1.00;0.82;;;;;;;;;;4998566;28;20057;-91
2023/02/01 04:24:49;;;;;;;1.00;1.00;;;;;;;;;;4998778;28;20046;-92
2023/02/01 04:27:15;;;;;;;0.75;0.75;;;;;;;;;;4998772;28;20055;-91
2023/02/01 04:29:44;;;;;;;0.52;0.52;;;;;;;;;;5010111;28;20108;-92
2023/02/01 04:32:11;;;;;;;0.98;0.98;;;;;;;;;;5017133;28;20108;-92
2023/02/01 04:34:38;;;;;;;0.57;0.57;;;;;;;;;;5017315;28;20056;-92
2023/02/01 04:37:04;;;;;;;1.45;1.35;;;;;;;;;;5017048;28;20096;-92
2023/02/01 04:39:30;;;;;;;1.33;1.20;;;;;;;;;;5017391;28;20049;-91
2023/02/01 04:41:57;;;;;;;1.08;1.08;;;;;;;;;;5017550;28;20050;-92
2023/02/01 04:44:24;;;;;;;2.88;2.67;;;;;;;;;;5017487;28;20492;-91
2023/02/01 04:46:51;;;;;;;2.38;2.28;;;;;;;;;;5017697;28;20045;-92
2023/02/01 04:49:18;;;;;;;1.23;1.15;;;;;;;;;;5017148;28;20058;-91
2023/02/01 04:51:45;;;;;;;0.80;0.73;;;;;;;;;;5017335;28;20054;-91
2023/02/01 04:54:12;;;;;;;0.50;0.50;;;;;;;;;;5017081;28;20042;-91
2023/02/01 04:56:38;;;;;;;0.95;0.95;;;;;;;;;;5016982;28;20807;-91
2023/02/01 04:59:05;;;;;;;0.88;0.88;;;;;;;;;;5017255;28;20380;-91
2023/02/01 05:01:32;;;;;;;0.77;0.70;;;;;;;;;;5017199;28;20096;-91
2023/02/01 05:04:00;;;;;;;0.60;0.60;;;;;;;;;;5017010;28;20144;-94
2023/02/01 05:06:26;;;;;;;1.50;1.42;;;;;;;;;;5016920;28;20389;-92
2023/02/01 05:08:53;;;;;;;1.20;1.20;;;;;;;;;;5016578;28;20105;-91
2023/02/01 05:14:03;;;;;;;;;;;;;;;;;;5017128;28;20104;-93
2023/02/01 05:16:29;;;;;;;1.10;1.05;;;;;;;;;;5016684;28;20425;-92
2023/02/01 05:18:56;;;;;;;2.83;1.67;;;;;;;;;;5016806;28;20112;-92
2023/02/01 05:21:24;;;;;;;1.35;1.25;;;;;;;;;;5016809;28;20050;-92
2023/02/01 05:26:34;;;;;;;;;;;;;;;;;;5016271;28;20084;-92
2023/02/01 05:29:00;;;;;;;1.70;1.60;;;;;;;;;;5016210;28;19921;-92
2023/02/01 05:31:27;;;;;;;0.50;0.50;;;;;;;;;;5016286;28;20054;-92
2023/02/01 05:33:53;;;;;;;1.35;1.25;;;;;;;;;;5016290;28;20100;-92
2023/02/01 05:36:20;;;;;;;1.13;1.13;;;;;;;;;;5016171;28;20046;-92
2023/02/01 05:38:48;;;;;;;1.70;1.60;;;;;;;;;;5016472;28;20491;-92
2023/02/01 05:41:14;;;;;;;1.25;1.25;;;;;;;;;;5016177;28;20046;-93
2023/02/01 05:43:41;;;;;;;1.98;1.88;;;;;;;;;;5016691;28;20046;-92
2023/02/01 05:46:10;;;;;;;2.97;2.78;;;;;;;;;;5016537;28;20050;-92
2023/02/01 05:48:36;;;;;;;2.20;1.67;;;;;;;;;;5016383;28;20065;-92
2023/02/01 05:51:03;;;;;;;0.80;0.80;;;;;;;;;;5016234;28;20050;-92
2023/02/01 05:53:30;;;;;;;0.70;0.70;;;;;;;;;;5016908;28;20042;-92
2023/02/01 05:55:58;;;;;;;0.95;0.95;;;;;;;;;;5017249;28;20096;-92
2023/02/01 05:58:24;;;;;;;0.75;0.75;;;;;;;;;;5017162;28;20052;-92
2023/02/01 06:00:51;;;;;;;1.38;1.38;;;;;;;;;;5017936;28;20054;-92
2023/02/01 06:03:17;;;;;;;1.02;1.02;;;;;;;;;;5016347;28;20045;-93
2023/02/01 06:05:44;;;;;;;1.73;1.63;;;;;;;;;;5016205;28;20049;-92
2023/02/01 06:08:11;;;;;;;1.70;1.58;;;;;;;;;;5016442;28;20053;-92
2023/02/01 06:10:37;;;;;;;2.42;2.03;;;;;;;;;;5016192;28;20075;-92
2023/02/01 06:13:05;;;;;;;0.65;0.65;;;;;;;;;;5015344;28;20100;-93
2023/02/01 06:15:32;;;;;;;0.95;0.95;;;;;;;;;;5015926;28;20054;-92
2023/02/01 06:17:59;;;;;;;1.63;1.38;;;;;;;;;;5015718;28;20046;-93
2023/02/01 06:20:25;;;;;;;2.00;1.02;;;;;;;;;;5016538;28;20057;-93
2023/02/01 06:22:52;;;;;;;3.72;3.53;;;;;;;;;;5015993;28;20104;-93
2023/02/01 06:25:19;;;;;;;0.55;0.55;;;;;;;;;;5017007;28;20077;-93
2023/02/01 06:27:45;;;;;;;2.08;1.98;;;;;;;;;;5015719;28;20050;-92
2023/02/01 06:30:14;;;;;;;3.15;2.92;;;;;;;;;;5048234;28;20114;-92
2023/02/01 06:32:40;;;;;;;2.47;2.28;;;;;;;;;;5054938;28;20128;-92
2023/02/01 06:35:08;;;;;;;0.40;0.40;;;;;;;;;;5053956;28;20128;-92
2023/02/01 06:37:34;;;;;;;2.67;2.47;;;;;;;;;;5031731;28;20415;-89
2023/02/01 06:40:01;;;;;;;1.23;1.17;;;;;;;;;;5013739;28;20120;-91
2023/02/01 06:42:27;;;;;;;0.98;0.98;;;;;;;;;;5015367;28;20475;-91
2023/02/01 06:44:54;;;;;;;1.25;1.15;;;;;;;;;;5015683;28;20049;-92
2023/02/01 06:47:21;;;;;;;0.68;0.68;;;;;;;;;;5045258;28;20099;-92
2023/02/01 06:49:48;;;;;;;0.90;0.90;;;;;;;;;;5056478;28;20049;-92
2023/02/01 06:52:15;;;;;;;1.02;1.02;;;;;;;;;;5056541;28;20049;-92
2023/02/01 06:54:41;;;;;;;0.93;0.93;;;;;;;;;;5056853;28;20444;-93
2023/02/01 06:57:08;;;;;;;1.60;1.50;;;;;;;;;;5058711;28;20053;-91
2023/02/01 06:59:34;;;;;;;2.42;1.98;;;;;;;;;;5065223;28;20071;-92
2023/02/01 07:02:00;;;;;;;2.47;2.38;;;;;;;;;;5053219;28;20519;-91
2023/02/01 07:04:28;;;;;;;1.52;1.00;;;;;;;;;;5046566;28;20049;-91
2023/02/01 07:06:55;;;;;;;1.88;1.77;;;;;;;;;;5046106;28;20056;-92
2023/02/01 07:09:22;;;;;;;1.48;1.38;;;;;;;;;;5044694;28;20049;-91
2023/02/01 07:11:48;;;;;;;1.00;0.98;;;;;;;;;;5044670;28;20053;-92
2023/02/01 07:14:15;;;;;;;0.98;0.98;;;;;;;;;;5044778;28;20450;-91
2023/02/01 07:16:41;;;;;;;0.80;0.80;;;;;;;;;;5052075;28;20056;-92
2023/02/01 07:19:08;;;;;;;1.42;1.42;;;;;;;;;;5056403;28;20048;-92
2023/02/01 07:21:36;;;;;;;1.90;1.80;;;;;;;;;;5055610;28;20049;-92
2023/02/01 07:24:02;;;;;;;1.13;1.13;;;;;;;;;;5062187;28;20033;-93
2023/02/01 07:26:29;;;;;;;1.85;1.75;;;;;;;;;;5057224;28;20056;-93
2023/02/01 07:28:55;;;;;;;1.48;1.38;;;;;;;;;;5056426;28;20103;-93
2023/02/01 07:31:22;;;;;;;1.83;1.73;;;;;;;;;;5056727;28;20060;-93
2023/02/01 07:33:51;;;;;;;2.45;1.70;;;;;;;;;;5056543;28;20396;-93
2023/02/01 07:36:18;;;;;;;1.77;1.67;;;;;;;;;;5056653;28;20045;-92
2023/02/01 07:38:47;;;;;;;2.10;2.00;;;;;;;;;;5055928;28;20095;-92
2023/02/01 07:41:14;;;;;;;2.78;2.58;;;;;;;;;;5054442;28;20554;-91
2023/02/01 07:43:41;;;;;;;1.98;1.88;;;;;;;;;;5034800;28;20050;-91
2023/02/01 07:46:08;;;;;;;2.13;2.03;;;;;;;;;;5035483;28;20525;-92
2023/02/01 07:48:34;;;;;;;2.10;2.00;;;;;;;;;;5034819;28;20049;-92
2023/02/01 07:51:02;;;;;;;0.82;0.82;;;;;;;;;;5037744;28;20091;-91
2023/02/01 07:53:29;;;;;;;1.08;1.08;;;;;;;;;;5038065;28;20049;-92
2023/02/01 07:55:57;;;;;;;1.30;1.30;;;;;;;;;;5037908;28;20053;-92
2023/02/01 07:58:24;;;;;;;1.63;1.55;;;;;;;;;;5038644;28;20053;-92
2023/02/01 08:03:37;;;;;;;1.17;1.08;;;;;;;;;;5033538;28;20056;-93
2023/02/01 08:06:06;;;;;;;1.77;1.67;;;;;;;;;;5038082;28;20115;-90
2023/02/01 08:08:32;;;;;;;1.92;1.83;;;;;;;;;;5037457;28;20049;-91
2023/02/01 08:11:01;;;;;;;1.42;1.33;;;;;;;;;;5037751;28;20111;-91
2023/02/01 08:13:27;;;;;;;1.33;1.23;;;;;;;;;;5037488;28;20045;-90
2023/02/01 08:15:58;;;;;;;1.05;1.05;;;;;;;;;;5042490;28;20041;-91
2023/02/01 08:18:24;;;;;;;1.55;1.52;;;;;;;;;;5038080;28;20049;-91
2023/02/01 08:20:51;;;;;;;3.20;3.08;;;;;;;;;;5039884;28;20053;-91
2023/02/01 08:23:18;;;;;;;0.75;0.75;;;;;;;;;;5037014;28;20103;-89
2023/02/01 08:25:44;;;;;;;1.63;1.52;;;;;;;;;;5037037;28;20133;-90
2023/02/01 08:28:12;;;;;;;1.48;1.42;;;;;;;;;;5037598;28;20118;-91
2023/02/01 08:30:39;;;;;;;1.95;1.63;;;;;;;;;;5037486;28;20061;-90
2023/02/01 08:33:06;;;;;;;1.33;1.23;;;;;;;;;;5038071;28;20107;-91
2023/02/01 08:35:33;;;;;;;1.42;1.33;;;;;;;;;;5040534;28;20077;-92
2023/02/01 08:38:00;;;;;;;0.70;0.68;;;;;;;;;;5038296;28;20057;-92
2023/02/01 08:40:26;;;;;;;0.45;0.45;;;;;;;;;;5037043;28;20053;-91
2023/02/01 08:42:53;;;;;;;1.90;1.80;;;;;;;;;;5036918;28;20491;-91
2023/02/01 08:45:23;;;;;;;1.08;1.08;;;;;;;;;;5036783;28;20111;-90
2023/02/01 08:47:50;;;;;;;1.35;1.25;;;;;;;;;;5048909;28;20490;-91
2023/02/01 08:50:16;;;;;;;3.80;1.35;;;;;;;;;;5055940;28;20056;-91
2023/02/01 08:52:43;;;;;;;1.25;1.15;;;;;;;;;;5056844;28;20044;-91
2023/02/01 08:55:11;;;;;;;1.67;1.58;;;;;;;;;;5056122;28;20102;-90
2023/02/01 08:57:38;;;;;;;2.03;1.92;;;;;;;;;;5056341;28;20053;-88
2023/02/01 09:00:05;;;;;;;1.23;1.23;;;;;;;;;;5054885;28;20056;-92
2023/02/01 09:02:33;;;;;;;3.58;1.77;;;;;;;;;;5056452;28;20057;-91
2023/02/01 09:05:00;;;;;;;2.38;2.28;;;;;;;;;;5056845;28;20045;-89
2023/02/01 09:07:26;;;;;;;0.85;0.85;;;;;;;;;;5056800;28;20045;-90
2023/02/01 09:09:54;;;;;;;0.95;0.95;;;;;;;;;;5056301;28;20086;-90
2023/02/01 09:12:21;;;;;;;1.23;1.13;;;;;;;;;;5056265;28;20053;-89
2023/02/01 09:14:47;;;;;;;1.77;1.67;;;;;;;;;;5055834;28;20041;-90
2023/02/01 09:17:14;;;;;;;0.70;0.70;;;;;;;;;;5056307;28;20045;-90
2023/02/01 09:19:42;;;;;;;1.42;1.02;;;;;;;;;;5055704;28;20688;-90
2023/02/01 09:22:08;;;;;;;1.95;1.85;;;;;;;;;;5036062;28;20119;-89
2023/02/01 09:24:35;;;;;;;0.80;0.80;;;;;;;;;;5035601;28;20498;-89
2023/02/01 09:27:01;;;;;;;1.50;1.40;;;;;;;;;;5035780;28;20052;-91
2023/02/01 09:29:28;;;;;;;1.65;1.55;;;;;;;;;;5035838;28;20049;-88
2023/02/01 09:31:54;;;;;;;1.52;1.45;;;;;;;;;;5035632;28;20561;-88
2023/02/01 09:34:21;;;;;;;1.25;0.90;;;;;;;;;;5035233;28;20049;-88
2023/02/01 09:36:49;;;;;;;1.00;1.00;;;;;;;;;;5034688;28;20049;-89
2023/02/01 09:39:16;;;;;;;0.90;0.90;;;;;;;;;;5035663;28;20049;-89
2023/02/01 09:41:51;;;;;;;1.02;0.98;;;;;;;;;;5035160;28;20049;-89
2023/02/01 09:44:22;;;;;;;1.10;1.08;;;;;;;;;;5036149;28;20123;-89
2023/02/01 09:46:48;;;;;;;3.75;3.55;;;;;;;;;;5035496;28;20045;-89
2023/02/01 09:49:19;;;;;;;1.15;1.15;;;;;;;;;;5035099;28;20049;-89
2023/02/01 09:51:47;;;;;;;4.13;3.85;;;;;;;;;;5036065;28;20457;-89
2023/02/01 09:54:17;;;;;;;7.50;1.95;;;;;;;;;;5016204;28;20053;-89
2023/02/01 09:56:47;;;;;;;1.23;1.23;;;;;;;;;;5016697;28;20042;-89
2023/02/01 09:59:24;;;;;;;1.27;1.23;;;;;;;;;;5018784;28;20111;-89
2023/02/01 10:01:50;;;;;;;;;;;;;;;;;;5036249;28;20042;-90
2023/02/01 10:04:18;;;;;;;0.88;0.88;;;;;;;;;;5036010;28;20363;-89
2023/02/01 10:06:54;;;;;;;1.02;0.93;;;;;;;;;;5034462;28;20096;-90
2023/02/01 10:09:36;;;;;;;1.73;1.63;;;;;;;;;;5034824;28;20056;-90
2023/02/01 10:12:17;;;;;;;0.85;0.85;;;;;;;;;;5034478;28;20053;-89
2023/02/01 10:14:54;;;;;;;1.95;1.85;;;;;;;;;;5035778;28;20521;-89
2023/02/01 10:17:26;;;;;;;1.17;1.08;;;;;;;;;;5036006;28;20049;-89
2023/02/01 10:19:59;;;;;;;1.35;1.33;;;;;;;;;;5035033;28;20072;-90
2023/02/01 10:22:34;;;;;;;1.20;1.20;;;;;;;;;;5034603;28;20444;-90
2023/02/01 10:25:06;;;;;;;2.72;1.00;;;;;;;;;;5035458;28;20099;-89
2023/02/01 10:27:34;;;;;;;1.13;1.13;;;;;;;;;;5034011;28;20049;-90
2023/02/01 10:30:04;;;;;;;1.38;1.33;;;;;;;;;;5034303;28;20104;-89
2023/02/01 10:32:34;;;;;;;2.35;2.25;;;;;;;;;;5033908;28;20465;-89
2023/02/01 10:35:01;;;;;;;1.20;1.13;;;;;;;;;;5033741;28;20109;-89
2023/02/01 10:37:29;;;;;;;2.15;1.88;;;;;;;;;;5034085;28;20503;-89
2023/02/01 10:39:57;;;;;;;1.23;1.20;;;;;;;;;;5034061;28;20057;-89
2023/02/01 10:42:27;;;;;;;1.00;1.00;;;;;;;;;;5033994;28;20569;-90
2023/02/01 10:44:54;;;;;;;1.55;1.45;;;;;;;;;;5033769;28;20053;-90
2023/02/01 10:47:21;;;;;;;1.75;1.33;;;;;;;;;;5033689;28;20049;-89
2023/02/01 10:49:50;;;;;;;2.03;1.85;;;;;;;;;;5033485;28;20135;-90
2023/02/01 10:52:19;;;;;;;0.85;0.85;;;;;;;;;;5033143;28;20053;-89
2023/02/01 10:54:45;;;;;;;1.23;1.17;;;;;;;;;;5032902;28;20499;-90
2023/02/01 10:57:20;;;;;;;3.00;1.90;;;;;;;;;;5033099;28;20068;-89
2023/02/01 10:59:48;;;;;;;1.90;1.80;;;;;;;;;;5013278;28;20057;-89
2023/02/01 11:02:20;;;;;;;1.33;1.27;;;;;;;;;;5013730;28;20054;-88
2023/02/01 11:04:46;;;;;;;2.58;2.38;;;;;;;;;;5033092;28;20103;-89
2023/02/01 11:07:25;;;;;;;1.63;1.52;;;;;;;;;;5033563;28;20049;-89
2023/02/01 11:09:54;;;;;;;1.30;1.20;;;;;;;;;;5013357;28;20483;-90
2023/02/01 11:12:26;;;;;;;1.38;1.30;;;;;;;;;;5013897;28;20073;-89
2023/02/01 11:14:57;;;;;;;1.33;1.25;;;;;;;;;;5033620;28;20103;-90
2023/02/01 11:17:29;;;;;;;1.23;1.17;;;;;;;;;;5033000;28;20099;-90
2023/02/01 11:19:59;;;;;;;1.92;1.83;;;;;;;;;;5033108;28;20575;-90
2023/02/01 11:22:28;;;;;;;1.92;1.83;;;;;;;;;;5032586;28;20136;-89
2023/02/01 11:24:55;;;;;;;1.70;1.60;;;;;;;;;;5032266;28;20054;-90
2023/02/01 11:27:22;;;;;;;1.70;1.60;;;;;;;;;;5033311;28;20053;-89
2023/02/01 11:29:51;;;;;;;1.48;1.38;;;;;;;;;;5046601;28;20056;-89
2023/02/01 11:32:20;;;;;;;2.17;2.08;;;;;;;;;;5051433;28;20045;-89
2023/02/01 11:34:48;;;;;;;1.77;1.67;;;;;;;;;;5012885;28;20100;-89
2023/02/01 11:37:17;;;;;;;2.03;1.92;;;;;;;;;;5013062;28;20050;-89
2023/02/01 11:39:53;;;;;;;1.85;1.75;;;;;;;;;;5013876;28;20050;-89
2023/02/01 11:42:20;;;;;;;1.75;1.65;;;;;;;;;;5013364;28;20096;-89
2023/02/01 11:44:47;;;;;;;1.42;1.33;;;;;;;;;;5013537;28;20073;-89
2023/02/01 11:47:26;;;;;;;1.80;1.70;;;;;;;;;;5022607;28;20491;-89
2023/02/01 11:49:53;;;;;;;1.67;1.58;;;;;;;;;;5032635;28;20132;-89
2023/02/01 11:52:30;;;;;;;1.25;1.15;;;;;;;;;;5033052;28;20119;-89
2023/02/01 11:55:05;;;;;;;1.67;1.58;;;;;;;;;;5032344;28;20533;-89
2023/02/01 11:57:41;;;;;;;2.00;1.90;;;;;;;;;;5032847;28;20611;-89
2023/02/01 12:00:27;;;;;;;1.20;1.20;;;;;;;;;;5013349;28;20050;-89
2023/02/01 12:03:03;;;;;;;1.58;1.48;;;;;;;;;;5017169;28;20468;-90
2023/02/01 12:05:35;;;;;;;1.23;1.20;;;;;;;;;;5053491;28;20534;-89
2023/02/01 12:08:17;;;;;;;1.00;1.00;;;;;;;;;;5050046;28;20045;-89
2023/02/01 12:10:49;;;;;;;1.38;1.27;;;;;;;;;;5033202;28;20148;-89
2023/02/01 12:13:21;;;;;;;1.05;1.05;;;;;;;;;;5037557;28;20103;-89
2023/02/01 12:15:53;;;;;;;1.70;1.60;;;;;;;;;;5052279;28;20115;-89
2023/02/01 12:18:40;;;;;;;2.53;2.42;;;;;;;;;;5052062;28;20506;-89
2023/02/01 12:21:12;;;;;;;0.70;0.70;;;;;;;;;;5052686;28;20127;-89
2023/02/01 12:23:50;;;;;;;1.27;1.20;;;;;;;;;;5045449;28;20084;-90
2023/02/01 12:26:29;;;;;;;0.82;0.82;;;;;;;;;;5033260;28;20049;-90
2023/02/01 12:29:02;;;;;;;2.22;2.13;;;;;;;;;;5032770;28;20452;-89
2023/02/01 12:31:39;;;;;;;1.90;1.80;;;;;;;;;;5032477;28;20049;-89
2023/02/01 12:34:16;;;;;;;1.05;1.05;;;;;;;;;;5033065;28;20050;-89
2023/02/01 12:36:42;;;;;;;;;;;;;;;;;;5037125;28;20191;-88
2023/02/01 12:39:13;;;;;;;1.15;1.15;;;;;;;;;;5036094;28;19921;-89
2023/02/01 12:41:45;;;;;;;5.97;1.10;;;;;;;;;;5036187;28;20046;-89
2023/02/01 12:44:16;;;;;;;3.33;2.55;;;;;;;;;;5037116;28;20547;-90
2023/02/01 12:46:46;;;;;;;1.02;1.02;;;;;;;;;;5039715;28;20050;-89
2023/02/01 12:49:16;;;;;;;1.13;1.13;;;;;;;;;;5039450;28;20057;-90
2023/02/01 12:51:45;;;;;;;1.95;1.85;;;;;;;;;;5036026;28;20115;-90
2023/02/01 12:54:14;;;;;;;2.13;2.03;;;;;;;;;;5038651;28;20091;-89
2023/02/01 12:56:44;;;;;;;2.10;2.00;;;;;;;;;;5032985;28;20091;-90
2023/02/01 12:59:17;;;;;;;0.88;0.88;;;;;;;;;;5038441;28;20510;-90
2023/02/01 13:01:48;;;;;;;1.60;1.50;;;;;;;;;;5038150;28;20049;-89
2023/02/01 13:04:14;;;;;;;;;;;;;;;;;;5038419;28;20092;-90
2023/02/01 13:06:44;;;;;;;2.42;2.33;;;;;;;;;;5037527;28;19975;-88
2023/02/01 13:09:15;;;;;;;1.13;1.02;;;;;;;;;;5038189;28;20053;-87
2023/02/01 13:11:44;;;;;;;1.17;1.17;;;;;;;;;;5038064;28;20057;-88
2023/02/01 13:14:16;;;;;;;2.47;2.38;;;;;;;;;;5037632;28;20045;-88
2023/02/01 13:16:44;;;;;;;2.85;2.67;;;;;;;;;;5037856;28;20045;-89
2023/02/01 13:19:14;;;;;;;1.20;1.20;;;;;;;;;;5038007;28;20045;-89
2023/02/01 13:21:42;;;;;;;1.88;1.77;;;;;;;;;;5037277;28;20050;-89
2023/02/01 13:24:18;;;;;;;2.40;2.30;;;;;;;;;;5036620;28;20407;-89
2023/02/01 13:26:46;;;;;;;1.17;1.08;;;;;;;;;;5035321;28;20049;-87
2023/02/01 13:29:16;;;;;;;8.15;1.85;;;;;;;;;;5035137;28;20049;-89
2023/02/01 13:31:52;;;;;;;4.35;4.05;;;;;;;;;;5033129;28;20123;-88
2023/02/01 13:34:39;;;;;;;2.25;2.15;;;;;;;;;;5035821;28;20054;-89
2023/02/01 13:37:11;;;;;;;1.95;1.85;;;;;;;;;;5035859;28;20076;-88
2023/02/01 13:39:44;;;;;;;1.38;1.27;;;;;;;;;;5034902;28;20059;-88
2023/02/01 13:42:15;;;;;;;4.10;2.65;;;;;;;;;;5034593;28;20139;-88
2023/02/01 13:44:45;;;;;;;1.65;1.55;;;;;;;;;;5035802;28;20061;-87
2023/02/01 13:47:17;;;;;;;2.72;2.60;;;;;;;;;;5035264;28;20053;-89
2023/02/01 13:49:44;;;;;;;1.25;1.17;;;;;;;;;;5037112;28;20058;-88
2023/02/01 13:52:23;;;;;;;2.00;1.90;;;;;;;;;;5034693;28;20049;-88
2023/02/01 13:55:01;;;;;;;2.78;2.67;;;;;;;;;;5034851;28;20076;-89
2023/02/01 13:57:36;;;;;;;1.25;1.20;;;;;;;;;;5034822;28;20050;-88
2023/02/01 14:00:23;;;;;;;0.65;0.65;;;;;;;;;;5035704;28;20091;-89
2023/02/01 14:02:51;;;;;;;1.15;1.15;;;;;;;;;;5014894;28;20058;-89
2023/02/01 14:05:36;;;;;;;2.50;2.40;;;;;;;;;;5029582;28;20056;-89
2023/02/01 14:08:10;;;;;;;1.23;1.23;;;;;;;;;;5034230;28;20049;-89
2023/02/01 14:10:49;;;;;;;1.75;1.48;;;;;;;;;;5033937;28;20045;-89
2023/02/01 14:13:24;;;;;;;1.30;1.30;;;;;;;;;;5034369;28;20103;-89
2023/02/01 14:16:05;;;;;;;1.75;1.65;;;;;;;;;;5034509;28;20091;-89
2023/02/01 14:19:05;;;;;;;1.52;1.42;;;;;;;;;;5034340;28;20052;-90
2023/02/01 14:21:33;;;;;;;2.63;2.50;;;;;;;;;;4934609;29;20651;-89
2023/02/01 14:24:01;;;;;;;1.33;1.33;;;;;;;;;;4934574;29;20142;-88
2023/02/01 14:26:42;;;;;;;1.83;1.73;;;;;;;;;;4934253;29;20044;-89
2023/02/01 14:29:18;;;;;;;2.47;2.38;;;;;;;;;;4946120;28;20074;-89
2023/02/01 14:31:49;;;;;;;2.83;2.42;;;;;;;;;;4953285;29;20501;-89
2023/02/01 14:34:25;;;;;;;2.25;2.15;;;;;;;;;;4957850;28;20046;-89
2023/02/01 14:36:55;;;;;;;2.10;2.00;;;;;;;;;;4973359;28;20081;-90
2023/02/01 14:39:30;;;;;;;2.28;2.17;;;;;;;;;;4972795;28;20046;-89
2023/02/01 14:42:00;;;;;;;1.92;1.83;;;;;;;;;;4973279;28;20047;-90
2023/02/01 14:44:28;;;;;;;2.60;2.40;;;;;;;;;;4973383;28;20417;-89
2023/02/01 14:47:18;;;;;;;1.90;1.80;;;;;;;;;;4973231;28;20781;-90
2023/02/01 14:49:50;;;;;;;2.35;1.85;;;;;;;;;;4953603;28;20042;-90
2023/02/01 14:52:18;;;;;;;1.70;1.60;;;;;;;;;;4993204;28;20046;-90
2023/02/01 14:54:47;;;;;;;2.78;2.20;;;;;;;;;;5034043;28;20049;-90
2023/02/01 14:57:17;;;;;;;1.58;1.48;;;;;;;;;;5033643;28;20038;-89
2023/02/01 14:59:45;;;;;;;1.90;1.73;;;;;;;;;;5036347;28;20053;-89
2023/02/01 15:02:19;;;;;;;1.08;1.08;;;;;;;;;;5033587;28;20042;-89
2023/02/01 15:04:45;;;;;;;2.10;2.00;;;;;;;;;;5033253;28;20549;-89
2023/02/01 15:07:13;;;;;;;2.67;2.58;;;;;;;;;;5033879;28;20457;-90
2023/02/01 15:09:43;;;;;;;2.13;2.03;;;;;;;;;;5033745;28;20108;-89
2023/02/01 15:12:17;;;;;;;1.52;1.45;;;;;;;;;;5034205;28;20104;-89
2023/02/01 15:14:48;;;;;;;1.83;1.73;;;;;;;;;;5034214;28;20053;-89
2023/02/01 15:17:19;;;;;;;3.13;2.35;;;;;;;;;;5033781;28;20115;-90
2023/02/01 15:19:53;;;;;;;1.48;1.00;;;;;;;;;;5040610;28;20160;-90
2023/02/01 15:22:20;;;;;;;1.85;1.75;;;;;;;;;;5052958;28;20494;-90
2023/02/01 15:24:52;;;;;;;3.22;3.03;;;;;;;;;;5090967;23;20036;-90
2023/02/01 15:27:20;;;;;;;8.20;2.97;;;;;;;;;;4974290;28;20538;-90